Warzao II — FGE7001 — position and weather

sailwx.info

Track history (hours):
 
Tides and Currents Weather Stations Pressure Air Temp Water Temp Dewpoint Dewpoint Depression Visibility Wind Speed Wind Dir Waves Ship Positions

Warzao II

Last reported at 2017-Oct-06 15:27 UTC. Time now 2017-Nov-23 09:41 UTC.
Position N 47°23' W 002°33'.
Warning: this ship's position is 47 days out of date.

Length 11 m.

Type: Sailing vessel. MMSI: 227667820.

Date/timePositionNaut miles runAvg speedWind from/ knotsBaromVisibWave heightAir tempDewpointWater temp
2017-Oct-06 15:27N 47°23' W 002°33'0 0.1
2017-Oct-06 14:59N 47°23' W 002°33'2 3.5
2017-Oct-06 14:30N 47°24' W 002°35'3 6.2
2017-Oct-06 14:00N 47°24' W 002°39'3 5.8
2017-Oct-06 13:30N 47°24' W 002°44'3 5.8
2017-Oct-06 13:00N 47°24' W 002°48'3 5.9
2017-Oct-06 12:30N 47°23' W 002°52'3 6.1
2017-Oct-06 12:00N 47°23' W 002°57'0 0.1
2017-Oct-06 09:41N 47°23' W 002°57'0 0.0
2017-Oct-06 09:29N 47°23' W 002°57'2 4.7
2017-Oct-06 09:00N 47°23' W 002°53'3 6.5
2017-Oct-06 08:31N 47°23' W 002°49'3 6.8
2017-Oct-06 08:00N 47°23' W 002°44'3 6.8
2017-Oct-06 07:30N 47°23' W 002°39'3 7.1
2017-Oct-06 07:00N 47°24' W 002°34'  
2017-Oct-03 16:16N 47°23' W 002°33'1 2.2
2017-Oct-03 15:59N 47°24' W 002°33'1 2.1
2017-Oct-03 15:26N 47°23' W 002°34'1 3.3
2017-Oct-03 15:00N 47°23' W 002°36'2 1.8
2017-Oct-03 13:59N 47°25' W 002°36'3 5.0
2017-Oct-03 13:26N 47°24' W 002°33'  
Track history (hours):
 
Tides and Currents Weather Stations Pressure Air Temp Water Temp Dewpoint Dewpoint Depression Visibility Wind Speed Wind Dir Waves Ship Positions

Warzao II

Last reported at 2017-Oct-06 15:27 UTC. Time now 2017-Nov-23 09:41 UTC.
Position N 47°23' W 002°33'.
Warning: this ship's position is 47 days out of date.

Length 11 m.

Type: Sailing vessel. MMSI: 227667820.

Date/timePositionNaut miles runAvg speedWind from/ knotsBaromVisibWave heightAir tempDewpointWater temp
2017-Oct-06 15:27N 47°23' W 002°33'0 0.1
2017-Oct-06 14:59N 47°23' W 002°33'2 3.5
2017-Oct-06 14:30N 47°24' W 002°35'3 6.2
2017-Oct-06 14:00N 47°24' W 002°39'3 5.8
2017-Oct-06 13:30N 47°24' W 002°44'3 5.8
2017-Oct-06 13:00N 47°24' W 002°48'3 5.9
2017-Oct-06 12:30N 47°23' W 002°52'3 6.1
2017-Oct-06 12:00N 47°23' W 002°57'0 0.1
2017-Oct-06 09:41N 47°23' W 002°57'0 0.0
2017-Oct-06 09:29N 47°23' W 002°57'2 4.7
2017-Oct-06 09:00N 47°23' W 002°53'3 6.5
2017-Oct-06 08:31N 47°23' W 002°49'3 6.8
2017-Oct-06 08:00N 47°23' W 002°44'3 6.8
2017-Oct-06 07:30N 47°23' W 002°39'3 7.1
2017-Oct-06 07:00N 47°24' W 002°34'  
2017-Oct-03 16:16N 47°23' W 002°33'1 2.2
2017-Oct-03 15:59N 47°24' W 002°33'1 2.1
2017-Oct-03 15:26N 47°23' W 002°34'1 3.3
2017-Oct-03 15:00N 47°23' W 002°36'2 1.8
2017-Oct-03 13:59N 47°25' W 002°36'3 5.0
2017-Oct-03 13:26N 47°24' W 002°33'  

Dump ship's entire track history